createdAt,value
2023-03-28T00:02:12.482Z,-0.90
2023-03-28T00:04:41.286Z,-1.00
2023-03-28T00:07:08.419Z,-1.00
2023-03-28T00:09:35.252Z,-0.90
2023-03-28T00:12:02.362Z,-0.80
2023-03-28T00:14:29.393Z,-0.70
2023-03-28T00:16:57.150Z,-0.80
2023-03-28T00:19:23.950Z,-0.90
2023-03-28T00:21:51.337Z,-1.00
2023-03-28T00:24:21.346Z,-1.00
2023-03-28T00:26:54.553Z,-1.00
2023-03-28T00:29:22.251Z,-1.10
2023-03-28T00:31:49.922Z,-1.10
2023-03-28T00:34:17.138Z,-0.90
2023-03-28T00:36:44.572Z,-1.00
2023-03-28T00:39:11.493Z,-1.00
2023-03-28T00:41:40.142Z,-1.10
2023-03-28T00:44:25.790Z,-1.10
2023-03-28T00:46:52.902Z,-1.10
2023-03-28T00:49:23.353Z,-1.10
2023-03-28T00:51:53.660Z,-1.10
2023-03-28T00:54:20.718Z,-1.10
2023-03-28T00:56:48.923Z,-1.10
2023-03-28T00:59:18.260Z,-1.10
2023-03-28T01:01:46.233Z,-1.20
2023-03-28T01:04:20.511Z,-1.40
2023-03-28T01:06:49.265Z,-1.50
2023-03-28T01:09:16.995Z,-1.50
2023-03-28T01:11:45.375Z,-1.40
2023-03-28T01:14:15.220Z,-1.40
2023-03-28T01:16:43.007Z,-1.20
2023-03-28T01:19:32.511Z,-1.10
2023-03-28T01:22:06.555Z,-1.00
2023-03-28T01:24:39.513Z,-0.90
2023-03-28T01:27:23.219Z,-1.00
2023-03-28T01:30:01.010Z,-1.10
2023-03-28T01:32:47.097Z,-1.20
2023-03-28T01:35:33.351Z,-1.20
2023-03-28T01:38:29.606Z,-1.20
2023-03-28T01:40:59.163Z,-1.10
2023-03-28T01:43:52.714Z,-1.10
2023-03-28T01:46:23.603Z,-1.10
2023-03-28T01:48:53.969Z,-1.10
2023-03-28T01:51:24.443Z,-1.20
2023-03-28T01:54:00.648Z,-1.20
2023-03-28T01:56:36.093Z,-1.20
2023-03-28T01:59:15.934Z,-1.10
2023-03-28T02:02:01.328Z,-1.00
2023-03-28T02:04:29.212Z,-1.10
2023-03-28T02:06:56.450Z,-0.90
2023-03-28T02:09:24.995Z,-1.00
2023-03-28T02:11:56.405Z,-0.80
2023-03-28T02:14:26.241Z,-0.90
2023-03-28T02:16:57.544Z,-0.90
2023-03-28T02:19:25.130Z,-0.90
2023-03-28T02:21:57.104Z,-1.00
2023-03-28T02:24:25.832Z,-1.00
2023-03-28T02:26:53.485Z,-0.90
2023-03-28T02:29:21.276Z,-0.80
2023-03-28T02:31:48.311Z,-0.90
2023-03-28T02:34:15.762Z,-1.10
2023-03-28T02:36:42.559Z,-1.10
2023-03-28T02:39:12.912Z,-1.20
2023-03-28T02:41:45.739Z,-1.20
2023-03-28T02:44:28.726Z,-1.10
2023-03-28T02:47:00.730Z,-1.10
2023-03-28T02:49:43.839Z,-1.10
2023-03-28T02:52:16.695Z,-1.20
2023-03-28T02:54:49.090Z,-1.10
2023-03-28T02:57:18.211Z,-1.20
2023-03-28T02:59:52.630Z,-1.10
2023-03-28T03:02:20.476Z,-0.90
2023-03-28T03:04:51.167Z,-0.90
2023-03-28T03:07:19.046Z,-1.00
2023-03-28T03:09:46.656Z,-1.00
2023-03-28T03:12:13.808Z,-1.00
2023-03-28T03:14:42.031Z,-1.00
2023-03-28T03:17:08.865Z,-1.00
2023-03-28T03:19:36.361Z,-1.00
2023-03-28T03:22:03.712Z,-1.10
2023-03-28T03:24:32.104Z,-1.00
2023-03-28T03:26:58.902Z,-1.00
2023-03-28T03:29:26.308Z,-1.00
2023-03-28T03:32:05.822Z,-0.90
2023-03-28T03:34:33.839Z,-0.90
2023-03-28T03:37:02.347Z,-0.90
2023-03-28T03:39:29.758Z,-0.80
2023-03-28T03:41:56.632Z,-0.80
2023-03-28T03:44:23.725Z,-0.80
2023-03-28T03:46:50.719Z,-0.70
2023-03-28T03:49:17.857Z,-0.70
2023-03-28T03:51:44.632Z,-0.70
2023-03-28T03:54:12.053Z,-0.60
2023-03-28T03:56:38.991Z,-0.60
2023-03-28T03:59:06.319Z,-0.60
2023-03-28T04:01:33.966Z,-0.60
2023-03-28T04:04:01.434Z,-0.60
2023-03-28T04:06:29.670Z,-0.50
2023-03-28T04:08:56.764Z,-0.60
2023-03-28T04:11:23.527Z,-0.60
2023-03-28T04:13:50.836Z,-0.70
2023-03-28T04:16:17.678Z,-0.70
2023-03-28T04:18:50.587Z,-0.80
2023-03-28T04:21:18.252Z,-0.80
2023-03-28T04:23:48.201Z,-0.80
2023-03-28T04:26:15.491Z,-0.90
2023-03-28T04:28:43.545Z,-0.90
2023-03-28T04:31:12.018Z,-0.90
2023-03-28T04:33:40.129Z,-0.90
2023-03-28T04:36:07.993Z,-0.90
2023-03-28T04:38:38.083Z,-1.10
2023-03-28T04:41:05.456Z,-1.10
2023-03-28T04:43:32.971Z,-1.20
2023-03-28T04:45:59.997Z,-1.30
2023-03-28T04:48:27.411Z,-1.30
2023-03-28T04:50:54.765Z,-1.40
2023-03-28T04:53:22.419Z,-1.50
2023-03-28T04:55:50.198Z,-1.60
2023-03-28T04:58:18.228Z,-1.50
2023-03-28T05:00:45.940Z,-1.60
2023-03-28T05:03:14.126Z,-1.60
2023-03-28T05:05:41.416Z,-1.60
2023-03-28T05:08:08.821Z,-1.60
2023-03-28T05:10:35.843Z,-1.60
2023-03-28T05:13:03.063Z,-1.60
2023-03-28T05:15:29.986Z,-1.60
2023-03-28T05:17:58.073Z,-1.70
2023-03-28T05:20:25.619Z,-1.60
2023-03-28T05:22:53.154Z,-1.40
2023-03-28T05:25:20.399Z,-1.40
2023-03-28T05:27:47.600Z,-1.40
2023-03-28T05:30:15.324Z,-1.10
2023-03-28T05:32:42.589Z,-0.70
2023-03-28T05:35:10.424Z,-0.10
2023-03-28T05:37:39.800Z,0.20
2023-03-28T05:40:10.980Z,0.40
2023-03-28T05:42:38.681Z,0.00
2023-03-28T05:45:06.133Z,-0.20
2023-03-28T05:47:33.534Z,-0.30
2023-03-28T05:50:00.428Z,-0.30
2023-03-28T05:52:28.157Z,-0.20
2023-03-28T05:54:56.299Z,-0.30
2023-03-28T05:57:23.856Z,-0.50
2023-03-28T05:59:51.560Z,-0.40
2023-03-28T06:02:20.149Z,-0.20
2023-03-28T06:04:47.608Z,-0.20
2023-03-28T06:07:15.915Z,-0.10
2023-03-28T06:09:42.898Z,0.20
2023-03-28T06:12:10.185Z,0.40
2023-03-28T06:14:36.985Z,0.30
2023-03-28T06:17:04.299Z,0.30
2023-03-28T06:19:31.132Z,0.10
2023-03-28T06:21:58.415Z,0.40
2023-03-28T06:24:25.258Z,0.60
2023-03-28T06:26:52.404Z,0.30
2023-03-28T06:29:19.635Z,0.10
2023-03-28T06:31:47.251Z,0.00
2023-03-28T06:34:14.095Z,0.30
2023-03-28T06:36:41.238Z,0.60
2023-03-28T06:39:09.246Z,0.50
2023-03-28T06:41:36.471Z,0.00
2023-03-28T06:44:03.448Z,-0.10
2023-03-28T06:46:30.784Z,-0.10
2023-03-28T06:48:57.710Z,0.10
2023-03-28T06:51:25.511Z,0.50
2023-03-28T06:53:52.373Z,0.40
2023-03-28T06:56:19.498Z,0.20
2023-03-28T06:58:46.342Z,0.00
2023-03-28T07:01:13.644Z,0.20
2023-03-28T07:03:40.676Z,0.30
2023-03-28T07:06:09.612Z,0.60
2023-03-28T07:08:36.895Z,0.60
2023-03-28T07:11:04.551Z,0.80
2023-03-28T07:13:31.537Z,1.00
2023-03-28T07:16:06.072Z,0.90
2023-03-28T07:18:32.995Z,0.40
2023-03-28T07:21:05.468Z,0.60
2023-03-28T07:23:32.699Z,0.80
2023-03-28T07:25:59.799Z,1.00
2023-03-28T07:28:26.672Z,0.90
2023-03-28T07:30:54.431Z,1.20
2023-03-28T07:33:29.014Z,1.20
2023-03-28T07:35:58.414Z,0.90
2023-03-28T07:38:25.242Z,0.60
2023-03-28T07:40:52.624Z,0.50
2023-03-28T07:43:19.420Z,0.40
2023-03-28T07:45:47.682Z,0.60
2023-03-28T07:48:14.497Z,0.80
2023-03-28T07:50:42.887Z,1.10
2023-03-28T07:53:09.756Z,1.30
2023-03-28T07:58:08.863Z,1.10
2023-03-28T08:00:36.321Z,0.90
2023-03-28T08:03:03.367Z,0.70
2023-03-28T08:05:34.070Z,1.20
2023-03-28T08:08:01.256Z,1.20
2023-03-28T08:10:28.398Z,1.20
2023-03-28T08:12:55.292Z,1.10
2023-03-28T08:15:22.459Z,1.00
2023-03-28T08:17:49.470Z,1.10
2023-03-28T08:20:17.092Z,1.00
2023-03-28T08:22:43.876Z,0.70
2023-03-28T08:25:11.226Z,0.60
2023-03-28T08:27:37.972Z,0.70
2023-03-28T08:30:06.510Z,0.40
2023-03-28T08:32:33.481Z,0.40
2023-03-28T08:35:05.788Z,0.30
2023-03-28T08:37:32.922Z,0.10
2023-03-28T08:40:01.143Z,0.10
2023-03-28T08:42:27.927Z,0.20
2023-03-28T08:45:13.634Z,0.60
2023-03-28T08:48:00.800Z,1.00
2023-03-28T08:50:34.027Z,0.90
2023-03-28T08:53:01.777Z,0.30
2023-03-28T08:55:40.592Z,-0.10
2023-03-28T08:58:11.036Z,-0.30
2023-03-28T09:00:38.912Z,-0.50
2023-03-28T09:03:17.239Z,-0.50
2023-03-28T09:06:04.808Z,-0.10
2023-03-28T09:08:31.874Z,0.50
2023-03-28T09:10:59.465Z,0.50
2023-03-28T09:13:29.196Z,0.60
2023-03-28T09:16:00.077Z,0.60
2023-03-28T09:18:26.941Z,0.90
2023-03-28T09:21:00.761Z,0.70
2023-03-28T09:23:27.868Z,0.40
2023-03-28T09:26:01.804Z,0.40
2023-03-28T09:28:47.794Z,0.30
2023-03-28T09:31:15.847Z,0.40
2023-03-28T09:33:44.103Z,0.40
2023-03-28T09:36:12.366Z,0.50
2023-03-28T09:38:43.392Z,0.70
2023-03-28T09:41:21.650Z,0.80
2023-03-28T09:43:58.667Z,0.90
2023-03-28T09:46:32.471Z,0.60
2023-03-28T09:48:59.551Z,0.10
2023-03-28T09:51:26.839Z,-0.30
2023-03-28T09:53:53.695Z,-0.40
2023-03-28T09:56:21.029Z,-0.30
2023-03-28T09:58:52.960Z,-0.40
2023-03-28T10:01:34.679Z,-0.10
2023-03-28T10:04:02.270Z,0.30
2023-03-28T10:06:31.427Z,0.30
2023-03-28T10:09:15.859Z,0.50
2023-03-28T10:11:44.750Z,0.40
2023-03-28T10:14:31.044Z,0.60
2023-03-28T10:17:01.251Z,0.80
2023-03-28T10:19:31.653Z,0.60
2023-03-28T10:22:01.916Z,0.80
2023-03-28T10:24:29.476Z,0.70
2023-03-28T10:27:06.406Z,0.60
2023-03-28T10:29:33.686Z,0.70
2023-03-28T10:32:00.901Z,0.40
2023-03-28T10:34:29.899Z,-0.20
2023-03-28T10:36:57.396Z,-0.50
2023-03-28T10:39:29.008Z,-0.50
2023-03-28T10:41:59.895Z,-0.30
2023-03-28T10:44:27.194Z,-0.20
2023-03-28T10:46:55.633Z,0.30
2023-03-28T10:49:23.114Z,0.90
2023-03-28T10:51:50.393Z,1.00
2023-03-28T10:54:35.576Z,0.80
2023-03-28T10:57:02.876Z,-0.30
2023-03-28T10:59:40.480Z,-0.60
2023-03-28T11:02:07.801Z,-0.70
2023-03-28T11:04:53.243Z,-0.40
2023-03-28T11:07:27.826Z,-0.10
2023-03-28T11:09:56.580Z,0.20
2023-03-28T11:12:32.280Z,0.40
2023-03-28T11:15:09.040Z,0.70
2023-03-28T11:17:36.489Z,0.80
2023-03-28T11:20:05.920Z,0.70
2023-03-28T11:23:02.761Z,1.10
2023-03-28T11:25:34.974Z,1.20
2023-03-28T11:28:16.203Z,1.10
2023-03-28T11:30:46.521Z,1.10
2023-03-28T11:33:19.369Z,1.10
2023-03-28T11:35:52.734Z,1.30
2023-03-28T11:38:41.564Z,1.40
2023-03-28T11:41:11.462Z,1.60
2023-03-28T11:43:46.611Z,1.90
2023-03-28T11:46:22.890Z,1.70
2023-03-28T11:48:55.954Z,1.40
2023-03-28T11:51:28.256Z,1.40
2023-03-28T11:53:58.385Z,1.20
2023-03-28T11:56:37.376Z,1.30
2023-03-28T11:59:12.752Z,1.60
2023-03-28T12:01:43.399Z,2.00
2023-03-28T12:04:10.704Z,2.20
2023-03-28T12:06:52.059Z,2.30
2023-03-28T12:09:44.300Z,1.70
2023-03-28T12:12:19.320Z,1.70
2023-03-28T12:14:57.783Z,1.90
2023-03-28T12:17:30.230Z,1.70
2023-03-28T12:19:57.612Z,1.90
2023-03-28T12:22:26.887Z,1.90
2023-03-28T12:24:57.060Z,1.90
2023-03-28T12:27:42.010Z,1.70
2023-03-28T12:30:38.554Z,1.70
2023-03-28T12:33:22.658Z,1.20
2023-03-28T12:35:56.290Z,1.20
2023-03-28T12:38:35.633Z,1.50
2023-03-28T12:41:04.441Z,1.80
2023-03-28T12:43:31.327Z,1.80
2023-03-28T12:46:01.630Z,1.60
2023-03-28T12:48:28.413Z,1.70
2023-03-28T12:50:57.556Z,2.10
2023-03-28T12:53:24.579Z,1.70
2023-03-28T12:55:52.488Z,1.50
2023-03-28T12:58:23.790Z,1.40
2023-03-28T13:01:09.482Z,1.30
2023-03-28T13:03:55.495Z,0.90
2023-03-28T13:06:53.084Z,0.50
2023-03-28T13:09:19.957Z,0.40
2023-03-28T13:11:55.873Z,0.40
2023-03-28T13:14:48.727Z,0.70
2023-03-28T13:17:18.134Z,0.90
2023-03-28T13:19:51.836Z,0.90
2023-03-28T13:22:21.800Z,0.90
2023-03-28T13:24:48.729Z,0.70
2023-03-28T13:27:27.882Z,0.40
2023-03-28T13:30:05.255Z,0.10
2023-03-28T13:32:34.147Z,-0.20
2023-03-28T13:35:03.545Z,-0.30
2023-03-28T13:37:42.627Z,0.00
2023-03-28T13:40:27.990Z,0.20
2023-03-28T13:42:58.927Z,0.60
2023-03-28T13:45:26.120Z,0.90
2023-03-28T13:48:06.118Z,1.00
2023-03-28T13:50:39.311Z,1.10
2023-03-28T13:53:06.451Z,1.10
2023-03-28T13:55:33.250Z,1.00
2023-03-28T13:58:01.181Z,1.20
2023-03-28T14:00:28.831Z,1.30
2023-03-28T14:03:03.861Z,1.40
2023-03-28T14:05:31.565Z,1.50
2023-03-28T14:08:21.918Z,1.60
2023-03-28T14:10:52.240Z,1.70
2023-03-28T14:13:22.321Z,1.80
2023-03-28T14:15:51.622Z,1.60
2023-03-28T14:18:36.246Z,1.70
2023-03-28T14:21:06.550Z,1.70
2023-03-28T14:23:40.991Z,2.00
2023-03-28T14:26:12.294Z,2.10
2023-03-28T14:28:40.706Z,2.00
2023-03-28T14:31:14.743Z,1.90
2023-03-28T14:33:47.492Z,1.90
2023-03-28T14:36:14.721Z,2.10
2023-03-28T14:38:42.436Z,2.10
2023-03-28T14:41:21.476Z,2.20
2023-03-28T14:43:53.672Z,2.20
2023-03-28T14:46:24.985Z,2.30
2023-03-28T14:48:53.809Z,2.70
2023-03-28T14:51:22.555Z,2.50
2023-03-28T14:53:50.758Z,2.60
2023-03-28T14:56:25.396Z,2.50
2023-03-28T14:58:55.200Z,2.50
2023-03-28T15:01:25.481Z,2.60
2023-03-28T15:03:57.503Z,3.00
2023-03-28T15:06:24.455Z,3.50
2023-03-28T15:08:52.478Z,3.40
2023-03-28T15:11:29.932Z,3.10
2023-03-28T15:14:15.410Z,2.90
2023-03-28T15:16:44.104Z,2.70
2023-03-28T15:19:17.342Z,2.70
2023-03-28T15:21:49.415Z,2.90
2023-03-28T15:24:18.321Z,2.80
2023-03-28T15:26:51.191Z,3.00
2023-03-28T15:29:19.963Z,3.20
2023-03-28T15:31:47.618Z,3.10
2023-03-28T15:34:27.351Z,3.20
2023-03-28T15:36:57.823Z,2.90
2023-03-28T15:39:26.449Z,2.90
2023-03-28T15:42:11.919Z,2.90
2023-03-28T15:44:40.663Z,3.00
2023-03-28T15:47:14.961Z,3.10
2023-03-28T15:49:42.163Z,3.00
2023-03-28T15:52:19.513Z,3.00
2023-03-28T15:54:52.017Z,2.80
2023-03-28T15:57:20.852Z,2.80
2023-03-28T15:59:51.145Z,3.10
2023-03-28T16:02:18.018Z,3.00
2023-03-28T16:05:00.797Z,3.20
2023-03-28T16:07:32.410Z,3.30
2023-03-28T16:09:59.532Z,3.30
2023-03-28T16:12:26.836Z,2.90
2023-03-28T16:14:54.275Z,2.90
2023-03-28T16:17:25.239Z,2.90
2023-03-28T16:19:52.429Z,2.80
2023-03-28T16:22:21.066Z,2.90
2023-03-28T16:24:48.790Z,2.90
2023-03-28T16:27:15.998Z,2.90
2023-03-28T16:29:43.403Z,3.00
2023-03-28T16:32:14.731Z,2.90
2023-03-28T16:34:42.632Z,2.90
2023-03-28T16:37:09.997Z,2.80
2023-03-28T16:39:37.549Z,2.60
2023-03-28T16:42:05.008Z,2.40
2023-03-28T16:44:33.198Z,2.30
2023-03-28T16:47:00.726Z,2.20
2023-03-28T16:49:28.289Z,2.10
2023-03-28T16:51:55.801Z,2.10
2023-03-28T16:54:23.776Z,1.90
2023-03-28T16:56:50.917Z,1.80
2023-03-28T16:59:18.119Z,1.70
2023-03-28T17:01:46.346Z,1.70
2023-03-28T17:04:13.560Z,1.70
2023-03-28T17:06:40.604Z,1.60
2023-03-28T17:09:07.678Z,1.60
2023-03-28T17:11:34.804Z,1.50
2023-03-28T17:14:02.741Z,1.40
2023-03-28T17:16:29.618Z,1.40
2023-03-28T17:18:56.847Z,1.40
2023-03-28T17:21:23.895Z,1.40
2023-03-28T17:23:51.248Z,1.30
2023-03-28T17:26:18.230Z,1.40
2023-03-28T17:28:45.766Z,1.30
2023-03-28T17:31:17.640Z,1.30
2023-03-28T17:33:46.081Z,1.30
2023-03-28T17:36:21.064Z,1.30
2023-03-28T17:38:49.816Z,1.30
2023-03-28T17:41:17.381Z,1.30
2023-03-28T17:43:44.952Z,1.30
2023-03-28T17:46:12.771Z,1.20
2023-03-28T17:48:41.066Z,1.20
2023-03-28T17:51:10.109Z,1.20
2023-03-28T17:53:41.633Z,1.20
2023-03-28T17:56:09.669Z,1.20
2023-03-28T17:58:37.684Z,1.20
2023-03-28T18:01:09.400Z,1.10
2023-03-28T18:03:37.351Z,1.20
2023-03-28T18:06:04.669Z,1.20
2023-03-28T18:08:31.935Z,1.20
2023-03-28T18:11:02.326Z,1.10
2023-03-28T18:13:29.427Z,1.10
2023-03-28T18:15:57.683Z,1.20
2023-03-28T18:18:25.036Z,1.20
2023-03-28T18:20:52.322Z,1.20
2023-03-28T18:23:19.617Z,1.20
2023-03-28T18:25:48.561Z,1.10
2023-03-28T18:28:15.934Z,1.00
2023-03-28T18:30:44.448Z,1.00
2023-03-28T18:33:11.861Z,0.90
2023-03-28T18:35:38.924Z,1.00
2023-03-28T18:38:06.201Z,0.90
2023-03-28T18:40:33.325Z,0.90
2023-03-28T18:43:00.678Z,0.90
2023-03-28T18:45:27.463Z,0.80
2023-03-28T18:47:54.661Z,0.80
2023-03-28T18:50:21.565Z,0.80
2023-03-28T18:52:48.980Z,0.80
2023-03-28T18:55:16.071Z,0.90
2023-03-28T18:57:43.449Z,0.90
2023-03-28T19:00:18.279Z,0.90
2023-03-28T19:02:46.896Z,0.90
2023-03-28T19:05:15.312Z,0.90
2023-03-28T19:07:42.792Z,1.00
2023-03-28T19:10:11.714Z,0.90
2023-03-28T19:12:39.301Z,0.90
2023-03-28T19:15:08.258Z,0.90
2023-03-28T19:17:36.316Z,0.90
2023-03-28T19:20:12.516Z,1.00
2023-03-28T19:22:41.255Z,1.00
2023-03-28T19:25:09.259Z,0.90
2023-03-28T19:27:36.784Z,0.90
2023-03-28T19:30:04.622Z,0.90
2023-03-28T19:32:32.745Z,0.90
2023-03-28T19:34:59.982Z,0.90
2023-03-28T19:37:27.783Z,0.90
2023-03-28T19:39:54.572Z,0.80
2023-03-28T19:42:21.741Z,0.80
2023-03-28T19:44:48.555Z,0.80
2023-03-28T19:47:15.826Z,0.70
2023-03-28T19:49:43.028Z,0.60
2023-03-28T19:52:10.289Z,0.60
2023-03-28T19:54:37.248Z,0.70
2023-03-28T19:57:08.026Z,0.70
2023-03-28T19:59:35.282Z,0.70
2023-03-28T20:02:02.718Z,0.70
2023-03-28T20:04:29.574Z,0.60
2023-03-28T20:06:56.802Z,0.60
2023-03-28T20:09:24.348Z,0.60
2023-03-28T20:11:51.479Z,0.60
2023-03-28T20:14:21.161Z,0.70
2023-03-28T20:16:48.647Z,0.70
2023-03-28T20:19:17.911Z,0.80
2023-03-28T20:21:45.213Z,0.90
2023-03-28T20:24:12.178Z,0.90
2023-03-28T20:26:39.886Z,0.90
2023-03-28T20:29:10.226Z,0.90
2023-03-28T20:31:37.489Z,0.90
2023-03-28T20:34:04.390Z,0.90
2023-03-28T20:36:34.231Z,0.90
2023-03-28T20:39:01.896Z,0.80
2023-03-28T20:41:30.020Z,0.70
2023-03-28T20:44:03.106Z,0.70
2023-03-28T20:46:32.195Z,0.70
2023-03-28T20:49:00.108Z,0.70
2023-03-28T20:51:29.525Z,0.70
2023-03-28T20:54:01.896Z,0.70
2023-03-28T20:56:30.623Z,0.70
2023-03-28T20:58:58.833Z,0.60
2023-03-28T21:01:28.333Z,0.60
2023-03-28T21:03:59.767Z,0.60
2023-03-28T21:06:29.145Z,0.60
2023-03-28T21:09:00.474Z,0.60
2023-03-28T21:11:29.214Z,0.60
2023-03-28T21:13:56.880Z,0.60
2023-03-28T21:16:24.738Z,0.60
2023-03-28T21:18:51.980Z,0.50
2023-03-28T21:21:19.948Z,0.60
2023-03-28T21:23:46.962Z,0.50
2023-03-28T21:26:16.002Z,0.50
2023-03-28T21:28:43.405Z,0.50
2023-03-28T21:31:15.394Z,0.50
2023-03-28T21:33:42.767Z,0.50
2023-03-28T21:36:11.480Z,0.50
2023-03-28T21:38:38.877Z,0.50
2023-03-28T21:41:06.335Z,0.50
2023-03-28T21:43:33.786Z,0.50
2023-03-28T21:46:01.329Z,0.60
2023-03-28T21:48:28.377Z,0.60
2023-03-28T21:50:59.299Z,0.70
2023-03-28T21:53:27.437Z,0.70
2023-03-28T21:55:56.085Z,0.80
2023-03-28T21:58:23.631Z,0.80
2023-03-28T22:00:50.875Z,0.80
2023-03-28T22:03:17.998Z,0.90
2023-03-28T22:05:45.454Z,0.80
2023-03-28T22:08:13.005Z,0.90
2023-03-28T22:11:01.442Z,0.90
2023-03-28T22:13:29.760Z,0.80
2023-03-28T22:16:00.643Z,0.80
2023-03-28T22:18:27.858Z,0.90
2023-03-28T22:20:55.527Z,0.90
2023-03-28T22:23:22.709Z,0.80
2023-03-28T22:25:50.065Z,0.80
2023-03-28T22:28:17.056Z,0.70
2023-03-28T22:30:44.274Z,0.70
2023-03-28T22:33:11.179Z,0.70
2023-03-28T22:35:38.589Z,0.70
2023-03-28T22:38:05.578Z,0.60
2023-03-28T22:40:32.897Z,0.60
2023-03-28T22:43:00.286Z,0.60
2023-03-28T22:45:27.712Z,0.60
2023-03-28T22:47:58.338Z,0.50
2023-03-28T22:50:26.548Z,0.50
2023-03-28T22:52:53.714Z,0.40
2023-03-28T22:55:22.374Z,0.40
2023-03-28T22:57:51.459Z,0.50
2023-03-28T23:00:21.569Z,0.40
2023-03-28T23:02:49.017Z,0.40
2023-03-28T23:05:16.159Z,0.20
2023-03-28T23:07:43.221Z,0.00
2023-03-28T23:10:14.209Z,-0.10
2023-03-28T23:12:42.078Z,-0.20
2023-03-28T23:15:09.427Z,-0.20
2023-03-28T23:17:36.347Z,-0.10
2023-03-28T23:20:12.325Z,-0.10
2023-03-28T23:22:39.644Z,-0.10
2023-03-28T23:25:07.194Z,0.00
2023-03-28T23:27:34.115Z,0.10
2023-03-28T23:30:01.245Z,0.00
2023-03-28T23:32:28.032Z,0.10
2023-03-28T23:34:55.146Z,0.10
2023-03-28T23:37:26.002Z,0.20
2023-03-28T23:39:53.870Z,0.20
2023-03-28T23:42:21.132Z,0.20
2023-03-28T23:44:48.465Z,0.20
2023-03-28T23:47:15.752Z,0.20
2023-03-28T23:49:42.990Z,0.20
2023-03-28T23:52:12.552Z,0.20
2023-03-28T23:54:40.064Z,0.20
2023-03-28T23:57:07.610Z,0.20
2023-03-28T23:59:35.066Z,0.20
